createdAt,value
2023-03-01T00:01:17.574Z,9.20
2023-03-01T00:03:44.632Z,11.77
2023-03-01T00:06:11.899Z,12.60
2023-03-01T00:08:38.939Z,11.32
2023-03-01T00:11:13.930Z,11.35
2023-03-01T00:13:41.852Z,11.30
2023-03-01T00:18:37.648Z,11.43
2023-03-01T00:21:04.714Z,9.85
2023-03-01T00:23:31.932Z,9.38
2023-03-01T00:25:58.858Z,10.70
2023-03-01T00:28:25.822Z,12.10
2023-03-01T00:30:55.390Z,12.40
2023-03-01T00:33:22.356Z,9.80
2023-03-01T00:35:49.323Z,11.00
2023-03-01T00:38:16.548Z,11.03
2023-03-01T00:40:43.417Z,10.25
2023-03-01T00:43:12.956Z,12.85
2023-03-01T00:45:40.270Z,9.85
2023-03-01T00:48:07.499Z,10.85
2023-03-01T00:50:34.309Z,10.02
2023-03-01T00:53:01.165Z,11.55
2023-03-01T00:55:27.999Z,11.65
2023-03-01T00:57:54.877Z,9.82
2023-03-01T01:00:21.940Z,11.17
2023-03-01T01:02:49.727Z,10.60
2023-03-01T01:05:21.727Z,11.90
2023-03-01T01:07:52.428Z,12.32
2023-03-01T01:10:19.312Z,12.38
2023-03-01T01:12:47.010Z,10.73
2023-03-01T01:15:15.137Z,8.88
2023-03-01T01:17:42.378Z,9.73
2023-03-01T01:20:10.069Z,10.68
2023-03-01T01:22:36.870Z,13.05
2023-03-01T01:25:03.802Z,12.00
2023-03-01T01:27:31.052Z,13.77
2023-03-01T01:29:57.872Z,10.80
2023-03-01T01:32:26.955Z,10.88
2023-03-01T01:34:54.087Z,11.05
2023-03-01T01:37:21.167Z,10.37
2023-03-01T01:39:48.073Z,12.18
2023-03-01T01:42:19.426Z,13.10
2023-03-01T01:44:49.513Z,12.38
2023-03-01T01:47:23.047Z,13.43
2023-03-01T01:49:57.146Z,17.23
2023-03-01T01:52:30.646Z,13.77
2023-03-01T01:55:08.155Z,13.27
2023-03-01T02:00:13.368Z,12.73
2023-03-01T02:02:42.171Z,14.35
2023-03-01T02:05:26.731Z,15.40
2023-03-01T02:07:54.124Z,12.23
2023-03-01T02:10:24.310Z,16.17
2023-03-01T02:12:52.002Z,13.68
2023-03-01T02:15:19.025Z,15.38
2023-03-01T02:17:46.188Z,13.02
2023-03-01T02:20:36.362Z,15.35
2023-03-01T02:23:03.406Z,15.82
2023-03-01T02:25:56.884Z,14.77
2023-03-01T02:28:34.111Z,15.15
2023-03-01T02:31:25.384Z,17.13
2023-03-01T02:33:53.739Z,15.68
2023-03-01T02:36:31.549Z,18.17
2023-03-01T02:39:00.632Z,16.65
2023-03-01T02:41:31.658Z,15.63
2023-03-01T02:43:59.217Z,15.65
2023-03-01T02:46:27.044Z,17.60
2023-03-01T02:51:36.280Z,19.02
2023-03-01T02:54:22.157Z,17.30
2023-03-01T02:56:50.316Z,15.35
2023-03-01T02:59:23.265Z,14.48
2023-03-01T03:01:50.775Z,14.55
2023-03-01T03:04:29.376Z,16.75
2023-03-01T03:06:56.406Z,12.20
2023-03-01T03:09:23.320Z,13.23
2023-03-01T03:11:50.509Z,15.45
2023-03-01T03:14:18.039Z,15.40
2023-03-01T03:16:49.551Z,13.68
2023-03-01T03:19:18.241Z,14.32
2023-03-01T03:21:45.355Z,15.35
2023-03-01T03:24:12.154Z,16.92
2023-03-01T03:26:39.102Z,17.03
2023-03-01T03:29:05.915Z,14.73
2023-03-01T03:31:32.749Z,17.98
2023-03-01T03:33:59.889Z,12.90
2023-03-01T03:36:27.054Z,15.13
2023-03-01T03:38:53.835Z,16.73
2023-03-01T03:41:20.878Z,14.90
2023-03-01T03:43:47.720Z,13.65
2023-03-01T03:46:14.525Z,14.75
2023-03-01T03:48:44.697Z,14.27
2023-03-01T03:51:13.952Z,13.32
2023-03-01T03:53:41.569Z,11.57
2023-03-01T03:56:09.025Z,13.52
2023-03-01T03:58:36.227Z,14.63
2023-03-01T04:01:03.334Z,16.48
2023-03-01T04:03:32.939Z,15.60
2023-03-01T04:06:01.857Z,14.32
2023-03-01T04:08:29.481Z,11.70
2023-03-01T04:11:24.446Z,14.05
2023-03-01T04:13:53.282Z,12.02
2023-03-01T04:16:20.273Z,12.65
2023-03-01T04:18:47.516Z,13.68
2023-03-01T04:21:14.564Z,13.23
2023-03-01T04:23:42.062Z,13.35
2023-03-01T04:26:09.219Z,13.13
2023-03-01T04:28:39.185Z,18.95
2023-03-01T04:31:17.320Z,17.90
2023-03-01T04:33:45.438Z,17.52
2023-03-01T04:36:14.144Z,14.95
2023-03-01T04:38:41.786Z,13.23
2023-03-01T04:41:12.009Z,14.65
2023-03-01T04:43:39.113Z,18.45
2023-03-01T04:46:10.163Z,17.92
2023-03-01T04:48:38.930Z,18.75
2023-03-01T04:51:06.663Z,15.95
2023-03-01T04:53:34.330Z,18.13
2023-03-01T04:56:01.172Z,13.75
2023-03-01T04:58:28.308Z,19.27
2023-03-01T05:00:56.233Z,11.10
2023-03-01T05:03:23.144Z,17.13
2023-03-01T05:05:51.864Z,13.30
2023-03-01T05:08:19.045Z,17.45
2023-03-01T05:10:49.796Z,17.88
2023-03-01T05:13:21.858Z,16.52
2023-03-01T05:15:56.668Z,16.10
2023-03-01T05:18:26.773Z,14.20
2023-03-01T05:21:02.067Z,16.10
2023-03-01T05:23:28.894Z,15.15
2023-03-01T05:26:00.422Z,18.43
2023-03-01T05:28:29.156Z,14.90
2023-03-01T05:30:56.549Z,15.85
2023-03-01T05:33:24.006Z,15.00
2023-03-01T05:35:52.802Z,12.82
2023-03-01T05:38:20.165Z,13.48
2023-03-01T05:40:48.826Z,12.70
2023-03-01T05:43:17.466Z,16.02
2023-03-01T05:45:44.791Z,14.95
2023-03-01T05:48:12.672Z,13.68
2023-03-01T05:53:12.193Z,16.80
2023-03-01T05:55:39.399Z,17.10
2023-03-01T05:58:11.831Z,17.13
2023-03-01T06:00:40.534Z,15.95
2023-03-01T06:03:07.536Z,15.15
2023-03-01T06:05:34.375Z,16.02
2023-03-01T06:08:02.236Z,16.03
2023-03-01T06:12:56.766Z,16.77
2023-03-01T06:15:24.231Z,16.70
2023-03-01T06:17:51.549Z,18.38
2023-03-01T06:20:23.563Z,15.40
2023-03-01T06:22:51.320Z,16.73
2023-03-01T06:25:21.846Z,18.13
2023-03-01T06:27:53.459Z,19.15
2023-03-01T06:30:22.063Z,17.10
2023-03-01T06:32:49.510Z,16.20
2023-03-01T06:35:20.732Z,16.13
2023-03-01T06:37:48.773Z,14.80
2023-03-01T06:40:16.133Z,16.95
2023-03-01T06:42:44.815Z,16.17
2023-03-01T06:45:12.477Z,16.40
2023-03-01T06:47:39.383Z,19.55
2023-03-01T06:50:07.124Z,20.27
2023-03-01T06:52:34.141Z,20.48
2023-03-01T06:55:01.682Z,18.30
2023-03-01T06:57:28.810Z,19.27
2023-03-01T06:59:55.723Z,20.30
2023-03-01T07:02:23.067Z,18.50
2023-03-01T07:04:53.508Z,20.08
2023-03-01T07:07:20.972Z,16.13
2023-03-01T07:09:49.464Z,22.73
2023-03-01T07:12:16.453Z,22.45
2023-03-01T07:14:45.198Z,18.45
2023-03-01T07:17:12.141Z,19.38
2023-03-01T07:19:38.965Z,21.47
2023-03-01T07:22:08.607Z,21.65
2023-03-01T07:24:35.445Z,18.38
2023-03-01T07:27:02.274Z,21.48
2023-03-01T07:29:29.845Z,24.35
2023-03-01T07:31:56.827Z,27.42
2023-03-01T07:34:23.637Z,23.03
2023-03-01T07:36:50.651Z,24.38
2023-03-01T07:39:18.738Z,21.37
2023-03-01T07:41:46.724Z,22.52
2023-03-01T07:44:13.525Z,24.73
2023-03-01T07:46:40.332Z,24.90
2023-03-01T07:49:07.264Z,27.33
2023-03-01T07:51:34.198Z,35.25
2023-03-01T07:54:01.409Z,28.40
2023-03-01T07:56:28.366Z,29.42
2023-03-01T07:58:55.237Z,27.75
2023-03-01T08:01:25.474Z,35.05
2023-03-01T08:03:52.492Z,28.73
2023-03-01T08:06:20.213Z,25.70
2023-03-01T08:08:47.333Z,26.15
2023-03-01T08:11:15.496Z,26.40
2023-03-01T08:13:43.389Z,28.88
2023-03-01T08:18:43.760Z,23.88
2023-03-01T08:21:18.417Z,23.13
2023-03-01T08:23:45.580Z,27.52
2023-03-01T08:26:19.368Z,26.70
2023-03-01T08:28:47.139Z,29.35
2023-03-01T08:31:18.376Z,30.92
2023-03-01T08:33:45.562Z,26.52
2023-03-01T08:36:12.478Z,23.13
2023-03-01T08:38:39.372Z,23.38
2023-03-01T08:41:08.926Z,23.63
2023-03-01T08:43:36.753Z,23.70
2023-03-01T08:46:03.631Z,22.77
2023-03-01T08:48:30.517Z,17.52
2023-03-01T08:51:07.618Z,21.50
2023-03-01T08:53:34.601Z,17.10
2023-03-01T08:56:03.491Z,17.83
2023-03-01T08:58:33.140Z,19.77
2023-03-01T09:01:00.350Z,17.10
2023-03-01T09:03:28.039Z,16.17
2023-03-01T09:06:01.836Z,16.40
2023-03-01T09:08:28.923Z,21.25
2023-03-01T09:10:55.996Z,16.50
2023-03-01T09:13:25.760Z,16.23
2023-03-01T09:15:52.994Z,13.27
2023-03-01T09:18:19.874Z,13.32
2023-03-01T09:20:46.690Z,15.82
2023-03-01T09:23:13.484Z,13.60
2023-03-01T09:25:40.388Z,9.68
2023-03-01T09:28:07.362Z,12.23
2023-03-01T09:30:34.325Z,10.88
2023-03-01T09:33:01.121Z,10.88
2023-03-01T09:35:28.980Z,12.35
2023-03-01T09:37:55.932Z,12.63
2023-03-01T09:40:28.249Z,16.20
2023-03-01T09:43:03.817Z,9.95
2023-03-01T09:45:41.974Z,9.93
2023-03-01T09:48:34.181Z,8.20
2023-03-01T09:51:08.728Z,8.80
2023-03-01T09:53:38.646Z,9.85
2023-03-01T09:56:22.388Z,7.32
2023-03-01T09:58:59.911Z,8.52
2023-03-01T10:01:57.701Z,8.18
2023-03-01T10:04:50.104Z,10.65
2023-03-01T10:07:37.466Z,8.23
2023-03-01T10:10:09.715Z,8.55
2023-03-01T10:12:41.421Z,8.77
2023-03-01T10:15:17.728Z,9.32
2023-03-01T10:17:47.819Z,8.18
2023-03-01T10:20:40.254Z,8.30
2023-03-01T10:23:10.107Z,8.75
2023-03-01T10:25:41.319Z,9.45
2023-03-01T10:28:26.796Z,8.90
2023-03-01T10:30:54.563Z,10.98
2023-03-01T10:33:34.855Z,7.55
2023-03-01T10:36:01.889Z,8.52
2023-03-01T10:38:32.766Z,9.73
2023-03-01T10:41:07.781Z,7.00
2023-03-01T10:43:55.058Z,7.57
2023-03-01T10:46:34.247Z,7.82
2023-03-01T10:49:29.485Z,7.93
2023-03-01T10:51:56.802Z,7.55
2023-03-01T10:54:32.974Z,7.53
2023-03-01T10:57:02.848Z,5.97
2023-03-01T10:59:36.060Z,6.18
2023-03-01T11:02:25.906Z,6.78
2023-03-01T11:05:01.360Z,8.20
2023-03-01T11:07:28.710Z,5.95
2023-03-01T11:09:55.970Z,6.00
2023-03-01T11:12:23.040Z,8.03
2023-03-01T11:14:53.751Z,8.05
2023-03-01T11:17:29.995Z,6.90
2023-03-01T11:20:08.104Z,8.02
2023-03-01T11:22:36.942Z,7.82
2023-03-01T11:25:10.447Z,6.78
2023-03-01T11:27:53.172Z,5.55
2023-03-01T11:30:33.297Z,6.28
2023-03-01T11:33:20.538Z,8.68
2023-03-01T11:36:03.056Z,7.97
2023-03-01T11:38:35.109Z,6.05
2023-03-01T11:41:22.802Z,6.22
2023-03-01T11:44:06.595Z,5.72
2023-03-01T11:46:33.616Z,5.03
2023-03-01T11:49:21.508Z,7.32
2023-03-01T11:54:48.914Z,6.07
2023-03-01T11:57:43.902Z,4.78
2023-03-01T12:00:23.186Z,4.88
2023-03-01T12:02:55.904Z,5.00
2023-03-01T12:05:31.583Z,6.15
2023-03-01T12:08:04.215Z,7.35
2023-03-01T12:11:02.894Z,5.53
2023-03-01T12:13:54.335Z,6.20
2023-03-01T12:16:37.540Z,5.63
2023-03-01T12:19:22.435Z,6.50
2023-03-01T12:22:16.645Z,6.55
2023-03-01T12:24:52.463Z,6.80
2023-03-01T12:27:50.301Z,7.78
2023-03-01T12:33:03.846Z,7.20
2023-03-01T12:35:36.354Z,5.50
2023-03-01T12:38:24.198Z,6.22
2023-03-01T12:41:06.172Z,6.13
2023-03-01T12:44:02.146Z,6.60
2023-03-01T12:47:03.165Z,7.22
2023-03-01T12:49:35.746Z,5.97
2023-03-01T12:52:13.200Z,7.68
2023-03-01T12:54:40.452Z,7.60
2023-03-01T12:57:27.546Z,7.85
2023-03-01T13:00:01.619Z,9.33
2023-03-01T13:03:01.318Z,6.43
2023-03-01T13:05:55.880Z,7.75
2023-03-01T13:08:45.065Z,9.45
2023-03-01T13:11:22.999Z,6.10
2023-03-01T13:16:29.920Z,5.43
2023-03-01T13:19:17.272Z,6.63
2023-03-01T13:21:46.160Z,6.65
2023-03-01T13:24:29.849Z,6.55
2023-03-01T13:27:26.084Z,5.35
2023-03-01T13:29:58.321Z,5.63
2023-03-01T13:32:43.017Z,7.05
2023-03-01T13:35:17.677Z,6.47
2023-03-01T13:37:45.317Z,5.93
2023-03-01T13:40:19.584Z,5.57
2023-03-01T13:43:16.238Z,5.32
2023-03-01T13:45:44.554Z,6.57
2023-03-01T13:48:11.445Z,6.57
2023-03-01T13:50:47.533Z,5.40
2023-03-01T13:53:19.309Z,5.10
2023-03-01T13:55:57.311Z,7.28
2023-03-01T13:58:27.824Z,6.25
2023-03-01T14:01:01.713Z,4.95
2023-03-01T14:03:30.844Z,5.07
2023-03-01T14:06:17.342Z,4.45
2023-03-01T14:08:47.508Z,5.10
2023-03-01T14:11:38.740Z,5.03
2023-03-01T14:14:40.238Z,5.45
2023-03-01T14:17:15.655Z,6.82
2023-03-01T14:19:46.157Z,5.43
2023-03-01T14:22:27.787Z,4.60
2023-03-01T14:25:00.549Z,4.32
2023-03-01T14:27:37.350Z,5.25
2023-03-01T14:30:23.761Z,3.25
2023-03-01T14:32:56.233Z,4.75
2023-03-01T14:35:42.666Z,4.72
2023-03-01T14:38:22.238Z,4.15
2023-03-01T14:40:56.763Z,6.40
2023-03-01T14:43:26.777Z,5.20
2023-03-01T14:45:53.775Z,5.10
2023-03-01T14:48:21.275Z,7.35
2023-03-01T14:50:49.376Z,4.40
2023-03-01T14:53:26.496Z,4.75
2023-03-01T14:55:55.822Z,5.03
2023-03-01T14:58:25.367Z,4.80
2023-03-01T15:01:17.359Z,4.15
2023-03-01T15:03:52.539Z,4.85
2023-03-01T15:06:22.634Z,7.35
2023-03-01T15:08:55.122Z,5.30
2023-03-01T15:11:30.707Z,6.20
2023-03-01T15:13:57.726Z,3.20
2023-03-01T15:16:31.402Z,4.47
2023-03-01T15:19:01.773Z,3.92
2023-03-01T15:21:33.336Z,4.82
2023-03-01T15:24:20.893Z,5.03
2023-03-01T15:27:02.880Z,3.42
2023-03-01T15:29:32.544Z,5.80
2023-03-01T15:32:35.394Z,5.95
2023-03-01T15:35:35.670Z,5.00
2023-03-01T15:38:02.966Z,6.72
2023-03-01T15:40:33.767Z,5.17
2023-03-01T15:43:06.380Z,6.03
2023-03-01T15:45:39.568Z,9.18
2023-03-01T15:48:21.828Z,5.25
2023-03-01T15:50:56.249Z,4.57
2023-03-01T15:53:27.770Z,5.15
2023-03-01T15:55:54.996Z,6.25
2023-03-01T15:58:24.530Z,5.38
2023-03-01T16:01:02.086Z,5.60
2023-03-01T16:03:29.669Z,5.75
2023-03-01T16:05:56.981Z,5.97
2023-03-01T16:08:24.478Z,10.00
2023-03-01T16:10:52.415Z,5.50
2023-03-01T16:13:20.342Z,5.03
2023-03-01T16:15:47.763Z,4.85
2023-03-01T16:18:14.834Z,8.30
2023-03-01T16:20:41.959Z,5.18
2023-03-01T16:23:11.514Z,4.22
2023-03-01T16:25:38.794Z,5.78
2023-03-01T16:28:10.045Z,5.88
2023-03-01T16:30:39.014Z,6.40
2023-03-01T16:33:24.187Z,5.93
2023-03-01T16:35:53.746Z,4.30
2023-03-01T16:38:20.672Z,3.50
2023-03-01T16:40:52.503Z,4.22
2023-03-01T16:43:19.685Z,5.15
2023-03-01T16:45:48.863Z,5.15
2023-03-01T16:48:15.901Z,3.85
2023-03-01T16:50:43.297Z,2.63
2023-03-01T16:53:10.899Z,4.82
2023-03-01T16:55:39.042Z,6.97
2023-03-01T17:00:35.602Z,7.25
2023-03-01T17:03:02.661Z,5.65
2023-03-01T17:05:29.526Z,4.55
2023-03-01T17:07:58.126Z,5.45
2023-03-01T17:10:25.456Z,7.45
2023-03-01T17:12:52.269Z,4.97
2023-03-01T17:15:19.322Z,6.95
2023-03-01T17:17:46.373Z,5.20
2023-03-01T17:20:13.667Z,7.45
2023-03-01T17:22:40.962Z,4.18
2023-03-01T17:25:11.705Z,6.97
2023-03-01T17:27:41.161Z,4.75
2023-03-01T17:30:09.951Z,3.30
2023-03-01T17:32:36.897Z,3.00
2023-03-01T17:35:04.401Z,4.10
2023-03-01T17:37:31.234Z,3.78
2023-03-01T17:39:58.209Z,5.72
2023-03-01T17:42:25.291Z,5.35
2023-03-01T17:44:52.501Z,7.05
2023-03-01T17:47:19.472Z,4.07
2023-03-01T17:49:46.439Z,6.50
2023-03-01T17:52:13.300Z,6.05
2023-03-01T17:54:40.349Z,4.40
2023-03-01T17:57:07.680Z,8.93
2023-03-01T17:59:37.382Z,6.30
2023-03-01T18:02:04.353Z,4.10
2023-03-01T18:04:32.381Z,4.60
2023-03-01T18:09:30.512Z,3.80
2023-03-01T18:11:57.492Z,7.45
2023-03-01T18:14:25.893Z,4.57
2023-03-01T18:16:52.841Z,5.47
2023-03-01T18:19:21.323Z,5.13
2023-03-01T18:21:48.119Z,7.95
2023-03-01T18:24:15.195Z,6.60
2023-03-01T18:26:42.027Z,5.40
2023-03-01T18:29:10.510Z,5.68
2023-03-01T18:31:37.425Z,6.00
2023-03-01T18:34:04.453Z,4.82
2023-03-01T18:36:34.500Z,5.65
2023-03-01T18:39:06.099Z,6.28
2023-03-01T18:41:33.886Z,4.78
2023-03-01T18:44:02.224Z,5.38
2023-03-01T18:46:29.359Z,4.25
2023-03-01T18:48:56.570Z,4.90
2023-03-01T18:51:26.417Z,5.50
2023-03-01T18:53:53.743Z,4.70
2023-03-01T18:56:20.690Z,4.38
2023-03-01T18:58:47.455Z,5.47
2023-03-01T19:01:25.696Z,7.35
2023-03-01T19:03:53.854Z,5.55
2023-03-01T19:08:48.177Z,5.47
2023-03-01T19:11:19.320Z,9.90
2023-03-01T19:13:47.801Z,4.20
2023-03-01T19:16:20.364Z,5.47
2023-03-01T19:18:51.398Z,6.18
2023-03-01T19:21:20.483Z,5.95
2023-03-01T19:23:51.011Z,7.45
2023-03-01T19:26:20.911Z,4.50
2023-03-01T19:28:48.413Z,5.93
2023-03-01T19:31:18.000Z,5.28
2023-03-01T19:33:45.199Z,6.15
2023-03-01T19:36:13.855Z,6.68
2023-03-01T19:38:48.017Z,5.82
2023-03-01T19:41:17.451Z,5.63
2023-03-01T19:43:47.137Z,6.18
2023-03-01T19:46:17.732Z,6.68
2023-03-01T19:48:44.997Z,7.25
2023-03-01T19:51:12.752Z,5.07
2023-03-01T19:53:40.551Z,7.75
2023-03-01T19:56:08.062Z,11.50
2023-03-01T19:58:34.946Z,15.52
2023-03-01T20:01:01.879Z,24.80
2023-03-01T20:03:30.961Z,16.08
2023-03-01T20:05:58.516Z,13.95
2023-03-01T20:08:25.944Z,10.27
2023-03-01T20:10:52.776Z,10.50
2023-03-01T20:13:21.154Z,8.95
2023-03-01T20:15:48.619Z,9.40
2023-03-01T20:18:18.103Z,6.77
2023-03-01T20:20:49.212Z,7.18
2023-03-01T20:23:17.983Z,11.77
2023-03-01T20:25:46.500Z,9.75
2023-03-01T20:28:13.530Z,7.72
2023-03-01T20:30:40.732Z,8.00
2023-03-01T20:33:07.890Z,7.10
2023-03-01T20:35:36.322Z,8.82
2023-03-01T20:38:03.684Z,6.40
2023-03-01T20:40:31.144Z,8.38
2023-03-01T20:42:59.724Z,9.15
2023-03-01T20:45:28.187Z,5.88
2023-03-01T20:47:55.398Z,7.25
2023-03-01T20:50:22.274Z,8.27
2023-03-01T20:52:49.202Z,5.82
2023-03-01T20:55:16.205Z,5.45
2023-03-01T20:57:43.596Z,30.30
2023-03-01T21:00:11.035Z,6.75
2023-03-01T21:02:39.003Z,7.53
2023-03-01T21:05:06.541Z,5.47
2023-03-01T21:07:33.367Z,8.90
2023-03-01T21:10:00.400Z,7.43
2023-03-01T21:12:27.411Z,6.47
2023-03-01T21:14:54.198Z,7.72
2023-03-01T21:17:21.366Z,6.28
2023-03-01T21:19:50.853Z,6.65
2023-03-01T21:22:18.049Z,11.18
2023-03-01T21:24:45.133Z,7.03
2023-03-01T21:27:12.206Z,5.77
2023-03-01T21:29:41.603Z,5.93
2023-03-01T21:32:09.759Z,7.25
2023-03-01T21:34:37.364Z,10.80
2023-03-01T21:37:05.348Z,8.02
2023-03-01T21:39:32.843Z,4.57
2023-03-01T21:42:04.151Z,6.18
2023-03-01T21:44:31.907Z,8.43
2023-03-01T21:46:59.162Z,6.95
2023-03-01T21:49:27.013Z,6.68
2023-03-01T21:51:54.086Z,5.30
2023-03-01T21:54:21.200Z,6.17
2023-03-01T21:56:49.259Z,5.67
2023-03-01T21:59:22.387Z,7.60
2023-03-01T22:01:50.894Z,7.15
2023-03-01T22:04:19.990Z,6.82
2023-03-01T22:06:47.074Z,7.22
2023-03-01T22:09:19.467Z,6.37
2023-03-01T22:11:52.747Z,7.13
2023-03-01T22:14:20.911Z,6.45
2023-03-01T22:16:51.214Z,6.72
2023-03-01T22:19:18.312Z,6.90
2023-03-01T22:21:49.594Z,7.27
2023-03-01T22:24:22.781Z,6.32
2023-03-01T22:26:50.657Z,8.10
2023-03-01T22:29:21.492Z,9.18
2023-03-01T22:31:48.787Z,7.25
2023-03-01T22:34:17.000Z,6.57
2023-03-01T22:36:44.788Z,7.30
2023-03-01T22:39:13.524Z,9.18
2023-03-01T22:41:44.278Z,9.48
2023-03-01T22:44:16.862Z,5.68
2023-03-01T22:46:44.425Z,8.77
2023-03-01T22:49:11.451Z,7.50
2023-03-01T22:51:40.442Z,6.43
2023-03-01T22:54:09.220Z,7.40
2023-03-01T22:56:38.341Z,8.63
2023-03-01T22:59:09.696Z,7.32
2023-03-01T23:01:38.601Z,6.68
2023-03-01T23:04:05.512Z,9.52
2023-03-01T23:06:32.912Z,5.90
2023-03-01T23:09:03.100Z,6.97
2023-03-01T23:11:30.105Z,13.20
2023-03-01T23:13:58.639Z,6.82
2023-03-01T23:16:26.476Z,7.35
2023-03-01T23:18:55.497Z,7.32
2023-03-01T23:21:23.001Z,8.88
2023-03-01T23:23:50.448Z,7.55
2023-03-01T23:26:18.411Z,7.13
2023-03-01T23:31:14.822Z,5.93
2023-03-01T23:33:45.055Z,8.07
2023-03-01T23:36:23.659Z,7.75
2023-03-01T23:38:52.894Z,7.45
2023-03-01T23:41:22.455Z,6.75
2023-03-01T23:43:52.649Z,7.47
2023-03-01T23:46:21.246Z,8.68
2023-03-01T23:48:48.701Z,8.68
2023-03-01T23:51:17.706Z,9.10
2023-03-01T23:53:54.501Z,8.13
2023-03-01T23:56:30.255Z,8.30
2023-03-01T23:58:59.523Z,6.50
